Airfield :
LOGIN :

Register | Disclaimer

   EN    FR    IT 

 










Legend :    VFR   Marginal VFR   IFR   Intensive IFR   Very Intensive IFR
Visi :
Ceiling :
>= 8 km
>= 3000ft
5 to 8 km
1000 to 3000 ft
1500m to 5 km
500 to 1000 ft
800 to 1500m
200 to 500 ft
< 800m
< 200 ft
Symbols :   Thunderstorms  Fog  Heavy snow  Heavy precipitations  Wind > 20 kt
SIGMETs :     Misc.  Thunderstorms  Icing  Turbulence  Mountain Waves  Volcanic Ashes






- Airport Elevation : 614 ft
- IATA code : CRL


EBCI - Charleroi

CURRENT METAR :
  • 270850Z 18006KT 9999 FEW008 01/M00 Q0988 TEMPO 3000 -SN BKN006

EXPIRED METARs :
  • 270820Z 17007KT 9999 FEW008 01/M00 Q0987 TEMPO BKN008
  • 270750Z 16004KT 9999 FEW008 01/M00 Q0987 TEMPO BKN008
  • 270720Z 16006KT 9999 FEW008 00/M01 Q0986 TEMPO BKN008
  • 270650Z 16007KT 9999 FEW008 M00/M01 Q0986 TEMPO BKN008
  • 270620Z 16006KT 140V200 9999 FEW008 M00/M01 Q0986 TEMPO BKN008

TAF TAF EBCI
Valid from the 27 at 06:00 until the 28 at 12:00 UTC


270516Z 2706/2812 17006KT 9999 SCT008 SCT020
PROB40
TEMPO 2706/2711 3500 BR BKN006
PROB30
TEMPO 2717/2723 2000 SHSNRA BKN004 BKN011TCU
PROB40
TEMPO 2723/2810 2000 BR BKN003



MET'MAP, your aeronautical weather chart ! - Copyright ORBIFLY December 2007 - Disclaimer

ORBIFLY MET'MAP TEAM :

Programming & Development : Alexandra Zaïnal
Concept & original design : Baudouin d'Aumeries
Assistance for programming : Marc-Olivier Méhu
Technical & hardware support : Manuel Goepfert

Contact : metmap@orbifly.com




SOURCES & CREDITS :

   NOAA